AAL2884 KDFW-KAUS
Flight info
| Callsign | AAL2884 |
|---|---|
| Flight time | 0h 33m |
| Altitude | 29000 |
| Route | JASPA7 WINDU SEWZY6 |
| Aircraft | B38M/M-SDE1FGHILORVWXY/HB1 |
Departure
| Time | 2026-05-05 18:24 |
|---|---|
| Airport | Dallas Fort Worth International Airport (KDFW) |
Arrival
| Time | 2026-05-05 18:57 |
|---|---|
| Airport | Austin Bergstrom International Airport (KAUS) |
| Time | Latitude | Longitude | Altitude | Speed | Heading |
|---|---|---|---|---|---|
| 2026-05-05 17:53 | 32.90290 | -97.03550 | 600 ft | 0 kts | 295° |
| 2026-05-05 18:15 | 32.90289 | -97.03547 | 600 ft | 2 kts | 295° |
| 2026-05-05 18:15 | 32.90281 | -97.03530 | 600 ft | 2 kts | 305° |
| 2026-05-05 18:15 | 32.90270 | -97.03515 | 600 ft | 2 kts | 320° |
| 2026-05-05 18:15 | 32.90256 | -97.03506 | 600 ft | 2 kts | 348° |
| 2026-05-05 18:16 | 32.90239 | -97.03506 | 600 ft | 2 kts | 15° |
| 2026-05-05 18:16 | 32.90228 | -97.03510 | 600 ft | 1 kts | 24° |
| 2026-05-05 18:16 | 32.90227 | -97.03511 | 600 ft | 0 kts | 25° |
| 2026-05-05 18:18 | 32.90232 | -97.03508 | 600 ft | 4 kts | 25° |
| 2026-05-05 18:19 | 32.90300 | -97.03471 | 600 ft | 15 kts | 27° |
| 2026-05-05 18:19 | 32.90330 | -97.03352 | 599 ft | 11 kts | 89° |
| 2026-05-05 18:19 | 32.90388 | -97.03313 | 599 ft | 12 kts | 360° |
| 2026-05-05 18:19 | 32.90480 | -97.03314 | 599 ft | 14 kts | 359° |
| 2026-05-05 18:20 | 32.90586 | -97.03315 | 599 ft | 16 kts | 360° |
| 2026-05-05 18:20 | 32.90707 | -97.03311 | 599 ft | 18 kts | 1° |
| 2026-05-05 18:20 | 32.90841 | -97.03313 | 599 ft | 20 kts | 359° |
| 2026-05-05 18:20 | 32.90985 | -97.03303 | 599 ft | 22 kts | 19° |
| 2026-05-05 18:21 | 32.91144 | -97.03275 | 599 ft | 24 kts | 360° |
| 2026-05-05 18:21 | 32.91302 | -97.03274 | 599 ft | 23 kts | 360° |
| 2026-05-05 18:21 | 32.91439 | -97.03275 | 599 ft | 13 kts | 360° |
| 2026-05-05 18:21 | 32.91487 | -97.03189 | 592 ft | 19 kts | 91° |
| 2026-05-05 18:22 | 32.91486 | -97.03124 | 586 ft | 7 kts | 90° |
| 2026-05-05 18:22 | 32.91485 | -97.03038 | 584 ft | 12 kts | 90° |
| 2026-05-05 18:22 | 32.91460 | -97.02989 | 584 ft | 8 kts | 180° |
| 2026-05-05 18:22 | 32.91300 | -97.02994 | 581 ft | 49 kts | 182° |
| 2026-05-05 18:23 | 32.90770 | -97.02995 | 581 ft | 101 kts | 180° |
| 2026-05-05 18:23 | 32.89914 | -97.02997 | 582 ft | 143 kts | 180° |
| 2026-05-05 18:23 | 32.88807 | -97.03013 | 632 ft | 170 kts | 183° |
| 2026-05-05 18:23 | 32.87637 | -97.03012 | 1158 ft | 174 kts | 179° |
| 2026-05-05 18:24 | 32.86398 | -97.02963 | 1624 ft | 181 kts | 182° |
| 2026-05-05 18:24 | 32.85067 | -97.02945 | 2130 ft | 202 kts | 182° |
| 2026-05-05 18:24 | 32.83599 | -97.02937 | 2721 ft | 220 kts | 184° |
| 2026-05-05 18:24 | 32.82006 | -97.02937 | 3324 ft | 236 kts | 185° |
| 2026-05-05 18:25 | 32.80318 | -97.02945 | 3976 ft | 248 kts | 185° |
| 2026-05-05 18:25 | 32.79163 | -97.02950 | 4510 ft | 252 kts | 185° |
| 2026-05-05 18:25 | 32.76777 | -97.02967 | 5534 ft | 260 kts | 185° |
| 2026-05-05 18:25 | 32.74956 | -97.02981 | 6376 ft | 263 kts | 185° |
| 2026-05-05 18:26 | 32.73117 | -97.02996 | 7160 ft | 266 kts | 186° |
| 2026-05-05 18:26 | 32.71247 | -97.02975 | 7893 ft | 275 kts | 179° |
| 2026-05-05 18:26 | 32.69352 | -97.02271 | 8494 ft | 294 kts | 161° |
| 2026-05-05 18:26 | 32.67461 | -97.01301 | 9250 ft | 298 kts | 163° |
| 2026-05-05 18:27 | 32.65539 | -97.00327 | 10021 ft | 302 kts | 163° |
| 2026-05-05 18:27 | 32.63571 | -96.99325 | 10552 ft | 317 kts | 163° |
| 2026-05-05 18:27 | 32.61458 | -96.98421 | 10937 ft | 326 kts | 177° |
| 2026-05-05 18:27 | 32.59230 | -96.98458 | 11554 ft | 321 kts | 196° |
| 2026-05-05 18:28 | 32.54785 | -96.99454 | 13147 ft | 327 kts | 198° |
| 2026-05-05 18:28 | 32.52543 | -96.99985 | 13951 ft | 330 kts | 198° |
| 2026-05-05 18:28 | 32.50289 | -97.00531 | 14736 ft | 332 kts | 199° |
| 2026-05-05 18:29 | 32.48014 | -97.01089 | 15518 ft | 335 kts | 199° |
| 2026-05-05 18:29 | 32.45749 | -97.01647 | 16263 ft | 338 kts | 199° |
| 2026-05-05 18:29 | 32.43434 | -97.02218 | 16988 ft | 342 kts | 199° |
| 2026-05-05 18:29 | 32.41096 | -97.02795 | 17719 ft | 345 kts | 199° |
| 2026-05-05 18:30 | 32.38704 | -97.03385 | 18393 ft | 348 kts | 199° |
| 2026-05-05 18:30 | 32.36355 | -97.03966 | 18991 ft | 351 kts | 200° |
| 2026-05-05 18:30 | 32.33949 | -97.04560 | 19576 ft | 355 kts | 200° |
| 2026-05-05 18:30 | 32.31519 | -97.05159 | 20163 ft | 359 kts | 200° |
| 2026-05-05 18:31 | 32.29063 | -97.05758 | 20753 ft | 363 kts | 199° |
| 2026-05-05 18:31 | 32.26487 | -97.05969 | 21323 ft | 376 kts | 191° |
| 2026-05-05 18:31 | 32.23856 | -97.06046 | 21870 ft | 380 kts | 192° |
| 2026-05-05 18:31 | 32.21202 | -97.06130 | 22418 ft | 384 kts | 192° |
| 2026-05-05 18:32 | 32.18518 | -97.06215 | 22961 ft | 388 kts | 192° |
| 2026-05-05 18:32 | 32.15811 | -97.06299 | 23463 ft | 392 kts | 192° |
| 2026-05-05 18:32 | 32.13068 | -97.06384 | 23918 ft | 395 kts | 192° |
| 2026-05-05 18:32 | 32.10316 | -97.06471 | 24388 ft | 397 kts | 192° |
| 2026-05-05 18:33 | 32.07541 | -97.06558 | 24841 ft | 400 kts | 192° |
| 2026-05-05 18:33 | 32.04753 | -97.06645 | 25291 ft | 402 kts | 192° |
| 2026-05-05 18:33 | 32.01946 | -97.06732 | 25728 ft | 405 kts | 192° |
| 2026-05-05 18:33 | 31.99123 | -97.06820 | 26174 ft | 407 kts | 192° |
| 2026-05-05 18:34 | 31.96276 | -97.06909 | 26587 ft | 410 kts | 192° |
| 2026-05-05 18:34 | 31.93415 | -97.06999 | 27002 ft | 413 kts | 192° |
| 2026-05-05 18:34 | 31.90535 | -97.07088 | 27404 ft | 416 kts | 192° |
| 2026-05-05 18:34 | 31.87633 | -97.07179 | 27812 ft | 418 kts | 192° |
| 2026-05-05 18:35 | 31.84718 | -97.07270 | 28228 ft | 421 kts | 192° |
| 2026-05-05 18:35 | 31.81777 | -97.07361 | 28610 ft | 424 kts | 192° |
| 2026-05-05 18:35 | 31.78814 | -97.07453 | 28815 ft | 429 kts | 192° |
| 2026-05-05 18:35 | 31.75866 | -97.07544 | 28832 ft | 429 kts | 192° |
| 2026-05-05 18:36 | 31.69909 | -97.07730 | 28832 ft | 428 kts | 192° |
| 2026-05-05 18:36 | 31.63946 | -97.07914 | 28828 ft | 428 kts | 192° |
| 2026-05-05 18:37 | 31.60979 | -97.08006 | 28667 ft | 426 kts | 192° |
| 2026-05-05 18:37 | 31.58034 | -97.08097 | 28402 ft | 423 kts | 192° |
| 2026-05-05 18:37 | 31.55095 | -97.08189 | 28147 ft | 421 kts | 193° |
| 2026-05-05 18:37 | 31.52279 | -97.08655 | 27868 ft | 398 kts | 207° |
| 2026-05-05 18:38 | 31.49672 | -97.09658 | 27645 ft | 390 kts | 207° |
| 2026-05-05 18:38 | 31.47118 | -97.10615 | 27277 ft | 383 kts | 208° |
| 2026-05-05 18:38 | 31.44591 | -97.11583 | 26762 ft | 381 kts | 208° |
| 2026-05-05 18:38 | 31.42082 | -97.12556 | 26246 ft | 379 kts | 208° |
| 2026-05-05 18:39 | 31.39592 | -97.13527 | 25738 ft | 377 kts | 208° |
| 2026-05-05 18:39 | 31.37107 | -97.14497 | 25238 ft | 375 kts | 208° |
| 2026-05-05 18:39 | 31.34635 | -97.15463 | 24742 ft | 374 kts | 208° |
| 2026-05-05 18:39 | 31.32166 | -97.16427 | 24250 ft | 373 kts | 208° |
| 2026-05-05 18:40 | 31.29711 | -97.17386 | 23752 ft | 372 kts | 208° |
| 2026-05-05 18:40 | 31.27257 | -97.18343 | 23265 ft | 371 kts | 208° |
| 2026-05-05 18:40 | 31.24810 | -97.19298 | 22674 ft | 371 kts | 208° |
| 2026-05-05 18:40 | 31.22366 | -97.20251 | 22164 ft | 369 kts | 207° |
| 2026-05-05 18:41 | 31.19948 | -97.21194 | 21750 ft | 364 kts | 207° |
| 2026-05-05 18:41 | 31.17553 | -97.22127 | 21287 ft | 362 kts | 207° |
| 2026-05-05 18:41 | 31.15168 | -97.23057 | 20807 ft | 360 kts | 206° |
| 2026-05-05 18:41 | 31.12793 | -97.23981 | 20325 ft | 359 kts | 206° |
| 2026-05-05 18:42 | 31.10429 | -97.24901 | 19841 ft | 358 kts | 206° |
| 2026-05-05 18:42 | 31.08067 | -97.25820 | 19356 ft | 357 kts | 205° |
| 2026-05-05 18:42 | 31.05709 | -97.26737 | 18875 ft | 357 kts | 205° |
| 2026-05-05 18:42 | 31.03351 | -97.27653 | 18388 ft | 357 kts | 205° |
| 2026-05-05 18:43 | 31.01000 | -97.28566 | 17863 ft | 357 kts | 204° |
| 2026-05-05 18:43 | 30.98677 | -97.29468 | 17372 ft | 345 kts | 204° |
| 2026-05-05 18:43 | 30.96445 | -97.30334 | 16976 ft | 331 kts | 205° |
| 2026-05-05 18:43 | 30.94327 | -97.31155 | 16556 ft | 320 kts | 205° |
| 2026-05-05 18:44 | 30.92220 | -97.31975 | 16111 ft | 310 kts | 205° |
| 2026-05-05 18:44 | 30.90231 | -97.32754 | 15679 ft | 302 kts | 205° |
| 2026-05-05 18:44 | 30.88239 | -97.33533 | 15272 ft | 302 kts | 205° |
| 2026-05-05 18:44 | 30.86894 | -97.34060 | 15008 ft | 302 kts | 205° |
| 2026-05-05 18:45 | 30.84250 | -97.35094 | 14461 ft | 303 kts | 205° |
| 2026-05-05 18:45 | 30.82248 | -97.35876 | 14058 ft | 304 kts | 205° |
| 2026-05-05 18:45 | 30.80328 | -97.36804 | 13616 ft | 294 kts | 213° |
| 2026-05-05 18:45 | 30.78529 | -97.37869 | 13179 ft | 287 kts | 212° |
| 2026-05-05 18:46 | 30.77324 | -97.38569 | 12919 ft | 287 kts | 211° |
| 2026-05-05 18:46 | 30.75532 | -97.39597 | 12525 ft | 287 kts | 211° |
| 2026-05-05 18:46 | 30.73733 | -97.40619 | 12144 ft | 288 kts | 210° |
| 2026-05-05 18:46 | 30.71935 | -97.41633 | 11759 ft | 288 kts | 210° |
| 2026-05-05 18:47 | 30.70133 | -97.42647 | 11375 ft | 288 kts | 209° |
| 2026-05-05 18:47 | 30.68347 | -97.43650 | 10992 ft | 289 kts | 209° |
| 2026-05-05 18:47 | 30.66510 | -97.44682 | 10590 ft | 290 kts | 208° |
| 2026-05-05 18:47 | 30.64693 | -97.45718 | 10142 ft | 290 kts | 208° |
| 2026-05-05 18:48 | 30.62909 | -97.46733 | 9767 ft | 281 kts | 208° |
| 2026-05-05 18:48 | 30.61181 | -97.47716 | 9376 ft | 273 kts | 208° |
| 2026-05-05 18:48 | 30.59497 | -97.48676 | 9009 ft | 275 kts | 208° |
| 2026-05-05 18:48 | 30.57775 | -97.49654 | 8619 ft | 277 kts | 208° |
| 2026-05-05 18:49 | 30.56044 | -97.50638 | 8241 ft | 277 kts | 208° |
| 2026-05-05 18:49 | 30.54314 | -97.51620 | 7861 ft | 275 kts | 208° |
| 2026-05-05 18:49 | 30.52621 | -97.52581 | 7494 ft | 266 kts | 208° |
| 2026-05-05 18:49 | 30.50980 | -97.53511 | 7139 ft | 259 kts | 208° |
| 2026-05-05 18:50 | 30.49385 | -97.54417 | 6784 ft | 252 kts | 209° |
| 2026-05-05 18:50 | 30.47831 | -97.55297 | 6462 ft | 245 kts | 208° |
| 2026-05-05 18:50 | 30.46319 | -97.56154 | 6107 ft | 239 kts | 209° |
| 2026-05-05 18:50 | 30.44844 | -97.56989 | 5768 ft | 233 kts | 209° |
| 2026-05-05 18:51 | 30.43492 | -97.57949 | 5416 ft | 225 kts | 224° |
| 2026-05-05 18:51 | 30.42397 | -97.59209 | 5108 ft | 221 kts | 226° |
| 2026-05-05 18:51 | 30.41305 | -97.60470 | 4819 ft | 221 kts | 225° |
| 2026-05-05 18:51 | 30.40232 | -97.61714 | 4560 ft | 216 kts | 225° |
| 2026-05-05 18:52 | 30.39185 | -97.62936 | 4235 ft | 211 kts | 224° |
| 2026-05-05 18:52 | 30.38147 | -97.64093 | 3959 ft | 203 kts | 218° |
| 2026-05-05 18:52 | 30.37003 | -97.65012 | 3700 ft | 197 kts | 214° |
| 2026-05-05 18:52 | 30.35886 | -97.65889 | 3449 ft | 192 kts | 213° |
| 2026-05-05 18:53 | 30.34806 | -97.66740 | 3185 ft | 184 kts | 214° |
| 2026-05-05 18:53 | 30.33756 | -97.67568 | 2931 ft | 179 kts | 212° |
| 2026-05-05 18:53 | 30.32636 | -97.68054 | 2667 ft | 172 kts | 185° |
| 2026-05-05 18:53 | 30.31469 | -97.68098 | 2452 ft | 163 kts | 186° |
| 2026-05-05 18:54 | 30.30329 | -97.68167 | 2311 ft | 164 kts | 182° |
| 2026-05-05 18:54 | 30.29199 | -97.68151 | 2101 ft | 158 kts | 180° |
| 2026-05-05 18:54 | 30.28142 | -97.68116 | 1944 ft | 149 kts | 181° |
| 2026-05-05 18:54 | 30.27117 | -97.68089 | 1746 ft | 146 kts | 181° |
| 2026-05-05 18:55 | 30.26105 | -97.68062 | 1547 ft | 145 kts | 181° |
| 2026-05-05 18:55 | 30.25104 | -97.68033 | 1347 ft | 145 kts | 182° |
| 2026-05-05 18:55 | 30.24076 | -97.67999 | 1073 ft | 150 kts | 181° |
| 2026-05-05 18:55 | 30.23023 | -97.67985 | 890 ft | 151 kts | 181° |
| 2026-05-05 18:56 | 30.21997 | -97.67948 | 699 ft | 146 kts | 180° |
| 2026-05-05 18:56 | 30.20986 | -97.67925 | 560 ft | 140 kts | 179° |
| 2026-05-05 18:56 | 30.20229 | -97.67908 | 535 ft | 73 kts | 179° |
| 2026-05-05 18:56 | 30.19836 | -97.67899 | 526 ft | 53 kts | 180° |
| 2026-05-05 18:57 | 30.19531 | -97.67873 | 522 ft | 23 kts | 169° |
| 2026-05-05 18:57 | 30.19402 | -97.67795 | 522 ft | 16 kts | 124° |
| 2026-05-05 18:57 | 30.19394 | -97.67664 | 521 ft | 18 kts | 89° |
| 2026-05-05 18:57 | 30.19396 | -97.67513 | 521 ft | 20 kts | 90° |
| 2026-05-05 18:58 | 30.19400 | -97.67369 | 519 ft | 17 kts | 88° |
| 2026-05-05 18:58 | 30.19464 | -97.67321 | 518 ft | 14 kts | 359° |
| 2026-05-05 18:58 | 30.19581 | -97.67324 | 519 ft | 23 kts | 359° |
| 2026-05-05 18:58 | 30.19771 | -97.67330 | 519 ft | 30 kts | 358° |
| 2026-05-05 18:59 | 30.19906 | -97.67332 | 521 ft | 13 kts | 359° |
| 2026-05-05 18:59 | 30.19997 | -97.67335 | 524 ft | 13 kts | 356° |
| 2026-05-05 18:59 | 30.20083 | -97.67324 | 526 ft | 11 kts | 44° |
| 2026-05-05 18:59 | 30.20096 | -97.67224 | 524 ft | 15 kts | 88° |
| 2026-05-05 19:00 | 30.20098 | -97.67136 | 522 ft | 10 kts | 88° |
| 2026-05-05 19:00 | 30.20101 | -97.67043 | 521 ft | 12 kts | 88° |
| 2026-05-05 19:00 | 30.20105 | -97.66944 | 520 ft | 10 kts | 81° |
| 2026-05-05 19:00 | 30.20144 | -97.66911 | 520 ft | 6 kts | 20° |
| 2026-05-05 19:01 | 30.20168 | -97.66901 | 520 ft | 0 kts | 20° |